createdAt,value
2022-09-29T00:02:21.988Z,3.15
2022-09-29T00:04:48.812Z,3.30
2022-09-29T00:07:15.734Z,3.75
2022-09-29T00:09:42.566Z,3.58
2022-09-29T00:12:09.508Z,3.13
2022-09-29T00:14:36.398Z,3.30
2022-09-29T00:17:03.313Z,3.42
2022-09-29T00:19:30.245Z,3.67
2022-09-29T00:21:57.143Z,3.35
2022-09-29T00:24:24.074Z,3.67
2022-09-29T00:26:50.962Z,3.30
2022-09-29T00:29:17.817Z,3.35
2022-09-29T00:31:44.726Z,3.42
2022-09-29T00:34:11.635Z,3.35
2022-09-29T00:36:38.930Z,3.38
2022-09-29T00:39:05.911Z,3.22
2022-09-29T00:41:34.255Z,3.38
2022-09-29T00:44:01.927Z,3.63
2022-09-29T00:46:31.489Z,3.25
2022-09-29T00:49:00.119Z,3.10
2022-09-29T00:51:26.952Z,3.17
2022-09-29T00:53:53.806Z,3.20
2022-09-29T00:56:20.677Z,3.72
2022-09-29T00:58:54.708Z,3.45
2022-09-29T01:01:26.665Z,3.15
2022-09-29T01:03:55.899Z,4.03
2022-09-29T01:06:28.937Z,3.45
2022-09-29T01:08:58.155Z,3.13
2022-09-29T01:11:25.094Z,3.85
2022-09-29T01:13:52.577Z,3.40
2022-09-29T01:16:19.465Z,3.15
2022-09-29T01:18:46.491Z,3.20
2022-09-29T01:21:14.181Z,3.38
2022-09-29T01:24:18.042Z,3.20
2022-09-29T01:26:51.562Z,3.10
2022-09-29T01:29:43.594Z,3.22
2022-09-29T01:32:39.694Z,3.07
2022-09-29T01:35:27.174Z,3.20
2022-09-29T01:37:54.013Z,3.28
2022-09-29T01:40:47.701Z,3.30
2022-09-29T01:43:24.245Z,2.92
2022-09-29T01:45:57.020Z,3.33
2022-09-29T01:48:29.911Z,3.22
2022-09-29T01:50:58.828Z,3.50
2022-09-29T01:56:02.029Z,3.30
2022-09-29T01:58:33.328Z,3.17
2022-09-29T02:01:02.244Z,3.00
2022-09-29T02:03:55.289Z,3.60
2022-09-29T02:08:53.385Z,3.45
2022-09-29T02:11:20.230Z,3.47
2022-09-29T02:13:58.017Z,3.53
2022-09-29T02:16:32.547Z,3.00
2022-09-29T02:19:05.331Z,3.20
2022-09-29T02:21:32.273Z,3.58
2022-09-29T02:23:59.095Z,3.22
2022-09-29T02:26:26.502Z,3.30
2022-09-29T02:28:53.349Z,3.28
2022-09-29T02:31:20.384Z,3.30
2022-09-29T02:33:47.360Z,3.30
2022-09-29T02:36:40.697Z,3.00
2022-09-29T02:39:32.433Z,3.40
2022-09-29T02:42:05.571Z,3.42
2022-09-29T02:44:38.985Z,3.42
2022-09-29T02:47:12.092Z,3.03
2022-09-29T02:49:50.654Z,3.28
2022-09-29T02:52:43.059Z,3.13
2022-09-29T02:55:28.835Z,3.20
2022-09-29T02:58:10.956Z,3.83
2022-09-29T03:00:37.902Z,3.53
2022-09-29T03:03:04.745Z,3.22
2022-09-29T03:05:31.709Z,3.38
2022-09-29T03:07:58.494Z,3.10
2022-09-29T03:10:29.841Z,3.33
2022-09-29T03:12:57.136Z,3.47
2022-09-29T03:15:24.458Z,3.38
2022-09-29T03:17:51.787Z,3.30
2022-09-29T03:20:18.588Z,3.20
2022-09-29T03:22:45.870Z,3.40
2022-09-29T03:25:15.049Z,3.03
2022-09-29T03:27:42.244Z,3.40
2022-09-29T03:30:10.066Z,3.13
2022-09-29T03:32:37.023Z,3.65
2022-09-29T03:35:04.202Z,3.58
2022-09-29T03:37:31.095Z,3.38
2022-09-29T03:39:57.956Z,3.42
2022-09-29T03:42:24.946Z,3.40
2022-09-29T03:44:51.892Z,3.17
2022-09-29T03:47:18.762Z,3.30
2022-09-29T03:49:45.586Z,3.42
2022-09-29T03:52:12.502Z,3.40
2022-09-29T03:54:39.377Z,3.50
2022-09-29T03:57:06.245Z,2.97
2022-09-29T03:59:33.090Z,3.20
2022-09-29T04:01:59.935Z,3.40
2022-09-29T04:04:26.750Z,3.42
2022-09-29T04:06:53.602Z,3.33
2022-09-29T04:09:20.581Z,3.28
2022-09-29T04:11:47.549Z,3.40
2022-09-29T04:14:14.485Z,3.22
2022-09-29T04:16:41.404Z,3.20
2022-09-29T04:19:08.213Z,3.13
2022-09-29T04:21:35.038Z,3.25
2022-09-29T04:24:02.151Z,3.30
2022-09-29T04:26:29.087Z,3.00
2022-09-29T04:28:56.190Z,2.90
2022-09-29T04:31:23.009Z,3.10
2022-09-29T04:33:49.849Z,3.33
2022-09-29T04:36:16.687Z,3.78
2022-09-29T04:38:43.519Z,3.17
2022-09-29T04:41:10.426Z,3.10
2022-09-29T04:43:37.292Z,3.67
2022-09-29T04:46:05.773Z,3.28
2022-09-29T04:48:35.810Z,3.53
2022-09-29T04:51:03.327Z,3.10
2022-09-29T04:53:30.247Z,3.30
2022-09-29T04:55:57.044Z,3.08
2022-09-29T04:58:23.923Z,3.30
2022-09-29T05:00:50.801Z,3.25
2022-09-29T05:03:17.736Z,2.80
2022-09-29T05:05:44.788Z,3.28
2022-09-29T05:08:11.934Z,2.90
2022-09-29T05:10:38.790Z,3.42
2022-09-29T05:13:05.607Z,3.55
2022-09-29T05:15:32.467Z,3.40
2022-09-29T05:18:02.771Z,3.22
2022-09-29T05:20:37.781Z,3.00
2022-09-29T05:23:10.200Z,3.22
2022-09-29T05:25:37.908Z,3.60
2022-09-29T05:28:04.821Z,3.30
2022-09-29T05:30:31.682Z,3.30
2022-09-29T05:32:59.201Z,2.90
2022-09-29T05:35:26.190Z,3.15
2022-09-29T05:37:53.125Z,3.10
2022-09-29T05:40:20.632Z,3.05
2022-09-29T05:42:47.508Z,3.17
2022-09-29T05:45:14.466Z,3.60
2022-09-29T05:47:43.356Z,3.72
2022-09-29T05:50:13.797Z,3.22
2022-09-29T05:52:40.866Z,3.42
2022-09-29T05:55:11.235Z,3.35
2022-09-29T05:57:38.107Z,3.15
2022-09-29T06:00:05.479Z,3.40
2022-09-29T06:02:38.268Z,3.10
2022-09-29T06:05:05.581Z,3.20
2022-09-29T06:07:32.397Z,3.00
2022-09-29T06:09:59.301Z,3.10
2022-09-29T06:12:26.774Z,3.30
2022-09-29T06:14:53.607Z,3.33
2022-09-29T06:17:20.474Z,3.40
2022-09-29T06:19:47.366Z,3.40
2022-09-29T06:22:14.243Z,3.65
2022-09-29T06:24:41.052Z,3.90
2022-09-29T06:27:08.543Z,4.55
2022-09-29T06:29:35.458Z,4.47
2022-09-29T06:32:02.986Z,3.90
2022-09-29T06:34:29.886Z,3.67
2022-09-29T06:37:15.356Z,3.63
2022-09-29T06:39:42.143Z,3.75
2022-09-29T06:42:08.942Z,3.40
2022-09-29T06:44:35.834Z,4.45
2022-09-29T06:47:02.686Z,3.33
2022-09-29T06:49:29.468Z,2.83
2022-09-29T06:51:56.761Z,2.80
2022-09-29T06:54:26.933Z,2.78
2022-09-29T06:56:54.103Z,3.53
2022-09-29T06:59:21.232Z,2.97
2022-09-29T07:01:50.612Z,2.97
2022-09-29T07:04:19.141Z,3.28
2022-09-29T07:06:46.027Z,3.00
2022-09-29T07:09:16.199Z,3.20
2022-09-29T07:11:46.569Z,3.00
2022-09-29T07:14:17.570Z,2.90
2022-09-29T07:16:45.209Z,2.83
2022-09-29T07:19:15.062Z,2.95
2022-09-29T07:21:42.054Z,3.22
2022-09-29T07:24:09.304Z,2.80
2022-09-29T07:26:36.324Z,2.80
2022-09-29T07:29:03.299Z,2.75
2022-09-29T07:31:34.552Z,2.60
2022-09-29T07:34:06.306Z,2.70
2022-09-29T07:36:33.592Z,3.15
2022-09-29T07:39:00.536Z,3.00
2022-09-29T07:41:28.089Z,2.80
2022-09-29T07:43:55.171Z,2.72
2022-09-29T07:46:22.156Z,2.63
2022-09-29T07:48:49.229Z,3.22
2022-09-29T07:51:19.549Z,2.85
2022-09-29T07:53:46.698Z,2.80
2022-09-29T07:56:18.651Z,2.70
2022-09-29T07:58:46.481Z,3.28
2022-09-29T08:01:15.715Z,2.85
2022-09-29T08:03:45.047Z,2.83
2022-09-29T08:06:11.962Z,3.28
2022-09-29T08:08:39.345Z,3.53
2022-09-29T08:11:07.871Z,3.10
2022-09-29T08:13:36.290Z,3.70
2022-09-29T08:16:04.482Z,3.72
2022-09-29T08:18:31.746Z,3.30
2022-09-29T08:21:01.332Z,3.45
2022-09-29T08:23:34.263Z,4.00
2022-09-29T08:26:02.723Z,4.13
2022-09-29T08:28:33.544Z,3.92
2022-09-29T08:31:10.397Z,4.40
2022-09-29T08:33:37.578Z,4.40
2022-09-29T08:36:14.294Z,4.47
2022-09-29T08:38:45.012Z,4.05
2022-09-29T08:41:37.428Z,4.95
2022-09-29T08:44:30.461Z,4.80
2022-09-29T08:47:10.144Z,5.18
2022-09-29T08:50:26.248Z,5.10
2022-09-29T08:52:59.629Z,5.53
2022-09-29T08:55:31.582Z,5.10
2022-09-29T08:57:59.070Z,5.50
2022-09-29T09:00:46.745Z,5.50
2022-09-29T09:03:51.354Z,5.40
2022-09-29T09:06:35.158Z,4.85
2022-09-29T09:09:08.846Z,5.50
2022-09-29T09:11:46.536Z,5.15
2022-09-29T09:14:22.880Z,5.50
2022-09-29T09:17:20.115Z,4.78
2022-09-29T09:20:27.702Z,4.93
2022-09-29T09:22:59.276Z,4.40
2022-09-29T09:25:33.824Z,4.75
2022-09-29T09:28:06.700Z,4.80
2022-09-29T09:30:38.545Z,4.43
2022-09-29T09:33:13.290Z,4.63
2022-09-29T09:35:58.246Z,4.63
2022-09-29T09:38:28.617Z,4.68
2022-09-29T09:40:57.586Z,4.85
2022-09-29T09:43:27.929Z,5.07
2022-09-29T09:46:01.001Z,4.60
2022-09-29T09:48:41.435Z,4.10
2022-09-29T09:51:34.150Z,4.13
2022-09-29T09:56:44.205Z,4.57
2022-09-29T09:59:28.328Z,4.57
2022-09-29T10:01:55.205Z,3.70
2022-09-29T10:04:23.440Z,3.92
2022-09-29T10:06:50.367Z,4.78
2022-09-29T10:09:17.311Z,3.80
2022-09-29T10:11:44.391Z,4.28
2022-09-29T10:14:21.948Z,4.03
2022-09-29T10:16:54.266Z,4.10
2022-09-29T10:21:49.950Z,4.18
2022-09-29T10:24:23.622Z,3.67
2022-09-29T10:26:51.899Z,3.90
2022-09-29T10:29:38.173Z,3.58
2022-09-29T10:32:07.055Z,4.22
2022-09-29T10:34:36.332Z,4.15
2022-09-29T10:37:25.320Z,4.35
2022-09-29T10:39:52.298Z,4.68
2022-09-29T10:42:24.141Z,5.05
2022-09-29T10:45:02.549Z,5.10
2022-09-29T10:47:29.411Z,5.07
2022-09-29T10:50:19.650Z,4.07
2022-09-29T10:52:58.242Z,1.98
2022-09-29T10:55:26.888Z,2.88
2022-09-29T10:57:56.161Z,3.63
2022-09-29T11:00:31.951Z,4.10
2022-09-29T11:03:19.858Z,3.58
2022-09-29T11:06:05.393Z,3.75
2022-09-29T11:08:32.335Z,4.13
2022-09-29T11:11:26.803Z,3.58
2022-09-29T11:13:53.837Z,3.42
2022-09-29T11:16:27.913Z,4.03
2022-09-29T11:19:00.687Z,4.38
2022-09-29T11:21:51.216Z,3.70
2022-09-29T11:24:37.174Z,4.40
2022-09-29T11:27:37.106Z,4.18
2022-09-29T11:30:07.734Z,3.88
2022-09-29T11:32:50.349Z,4.45
2022-09-29T11:35:25.041Z,3.90
2022-09-29T11:38:16.571Z,3.28
2022-09-29T11:40:53.810Z,2.10
2022-09-29T11:43:29.598Z,2.50
2022-09-29T11:46:17.876Z,2.88
2022-09-29T11:48:54.993Z,2.60
2022-09-29T11:51:54.548Z,2.72
2022-09-29T11:54:37.792Z,2.38
2022-09-29T11:57:17.461Z,2.22
2022-09-29T12:00:08.677Z,2.60
2022-09-29T12:02:57.802Z,2.30
2022-09-29T12:05:34.259Z,2.47
2022-09-29T12:08:31.215Z,3.22
2022-09-29T12:11:54.929Z,2.45
2022-09-29T12:14:53.677Z,2.42
2022-09-29T12:17:20.471Z,2.20
2022-09-29T12:19:56.169Z,1.77
2022-09-29T12:22:23.034Z,2.20
2022-09-29T12:24:54.793Z,2.10
2022-09-29T12:27:27.357Z,2.30
2022-09-29T12:30:06.910Z,2.15
2022-09-29T12:32:36.821Z,1.92
2022-09-29T12:35:29.169Z,1.85
2022-09-29T12:38:16.324Z,1.60
2022-09-29T12:41:05.261Z,1.60
2022-09-29T12:43:51.273Z,1.33
2022-09-29T12:46:29.315Z,1.35
2022-09-29T12:49:20.829Z,1.60
2022-09-29T12:51:49.810Z,1.90
2022-09-29T12:54:28.501Z,2.00
2022-09-29T12:57:01.532Z,1.80
2022-09-29T12:59:33.257Z,1.90
2022-09-29T13:02:01.014Z,2.00
2022-09-29T13:05:02.190Z,1.90
2022-09-29T13:07:39.838Z,2.00
2022-09-29T13:10:23.413Z,1.83
2022-09-29T13:13:25.847Z,2.30
2022-09-29T13:16:02.994Z,1.60
2022-09-29T13:18:53.991Z,1.60
2022-09-29T13:22:06.510Z,1.90
2022-09-29T13:24:43.426Z,1.90
2022-09-29T13:27:31.321Z,2.13
2022-09-29T13:30:11.651Z,1.80
2022-09-29T13:32:47.864Z,1.70
2022-09-29T13:35:19.545Z,1.85
2022-09-29T13:37:52.070Z,1.85
2022-09-29T13:40:21.961Z,1.63
2022-09-29T13:42:50.593Z,1.67
2022-09-29T13:45:20.415Z,1.50
2022-09-29T13:47:47.985Z,1.60
2022-09-29T13:50:39.613Z,1.48
2022-09-29T13:53:33.650Z,1.45
2022-09-29T13:56:03.436Z,1.42
2022-09-29T13:58:31.169Z,1.65
2022-09-29T14:00:59.750Z,1.80
2022-09-29T14:03:37.146Z,1.70
2022-09-29T14:06:29.314Z,1.67
2022-09-29T14:09:16.389Z,1.75
2022-09-29T14:11:53.406Z,2.13
2022-09-29T14:14:34.348Z,1.70
2022-09-29T14:17:01.675Z,1.70
2022-09-29T14:19:42.980Z,1.40
2022-09-29T14:22:31.817Z,1.27
2022-09-29T14:25:19.068Z,1.35
2022-09-29T14:28:25.923Z,1.50
2022-09-29T14:30:55.019Z,1.58
2022-09-29T14:33:24.612Z,1.58
2022-09-29T14:36:00.616Z,2.08
2022-09-29T14:39:14.474Z,1.48
2022-09-29T14:41:47.611Z,1.27
2022-09-29T14:44:51.846Z,1.45
2022-09-29T14:50:48.406Z,1.58
2022-09-29T14:53:16.716Z,1.42
2022-09-29T14:56:22.170Z,1.40
2022-09-29T14:58:59.208Z,1.38
2022-09-29T15:01:28.396Z,1.35
2022-09-29T15:04:06.325Z,1.30
2022-09-29T15:06:33.158Z,1.23
2022-09-29T15:09:00.050Z,1.50
2022-09-29T15:11:31.216Z,2.25
2022-09-29T15:13:58.840Z,1.50
2022-09-29T15:16:39.663Z,1.50
2022-09-29T15:19:34.637Z,1.45
2022-09-29T15:22:39.549Z,1.48
2022-09-29T15:25:10.326Z,1.40
2022-09-29T15:27:38.918Z,1.63
2022-09-29T15:30:07.354Z,1.20
2022-09-29T15:32:34.185Z,1.50
2022-09-29T15:35:05.630Z,1.30
2022-09-29T15:37:58.715Z,1.30
2022-09-29T15:40:26.566Z,1.40
2022-09-29T15:42:55.526Z,1.30
2022-09-29T15:45:29.621Z,1.40
2022-09-29T15:48:02.295Z,1.52
2022-09-29T15:50:32.540Z,1.80
2022-09-29T15:53:02.877Z,1.60
2022-09-29T15:55:32.863Z,1.20
2022-09-29T15:58:02.150Z,1.40
2022-09-29T16:00:38.106Z,1.50
2022-09-29T16:03:05.040Z,1.63
2022-09-29T16:05:32.986Z,1.58
2022-09-29T16:08:16.692Z,2.10
2022-09-29T16:10:55.059Z,1.60
2022-09-29T16:13:41.011Z,1.60
2022-09-29T16:16:11.389Z,1.67
2022-09-29T16:18:43.315Z,1.45
2022-09-29T16:21:12.070Z,2.08
2022-09-29T16:23:42.806Z,1.55
2022-09-29T16:26:11.978Z,1.60
2022-09-29T16:28:39.905Z,1.50
2022-09-29T16:31:33.325Z,1.60
2022-09-29T16:34:00.701Z,1.50
2022-09-29T16:36:36.802Z,1.30
2022-09-29T16:39:07.011Z,1.40
2022-09-29T16:41:35.638Z,1.48
2022-09-29T16:44:03.169Z,1.50
2022-09-29T16:46:30.024Z,1.50
2022-09-29T16:48:58.074Z,1.60
2022-09-29T16:51:40.635Z,1.58
2022-09-29T16:54:12.851Z,1.60
2022-09-29T16:56:40.753Z,1.50
2022-09-29T16:59:16.217Z,1.60
2022-09-29T17:01:43.722Z,1.80
2022-09-29T17:04:11.022Z,1.73
2022-09-29T17:06:38.506Z,1.50
2022-09-29T17:09:05.621Z,1.55
2022-09-29T17:11:32.512Z,1.80
2022-09-29T17:13:59.553Z,1.60
2022-09-29T17:16:26.613Z,1.60
2022-09-29T17:18:54.429Z,1.80
2022-09-29T17:21:21.372Z,1.42
2022-09-29T17:23:48.304Z,1.65
2022-09-29T17:26:42.559Z,2.25
2022-09-29T17:29:09.415Z,2.42
2022-09-29T17:31:36.277Z,1.90
2022-09-29T17:34:03.971Z,2.25
2022-09-29T17:36:30.745Z,2.00
2022-09-29T17:38:57.597Z,1.80
2022-09-29T17:41:24.472Z,1.90
2022-09-29T17:43:51.335Z,2.05
2022-09-29T17:46:18.430Z,2.70
2022-09-29T17:48:45.270Z,3.10
2022-09-29T17:51:13.647Z,2.30
2022-09-29T17:53:41.592Z,2.25
2022-09-29T17:56:18.135Z,2.53
2022-09-29T17:58:45.035Z,3.25
2022-09-29T18:01:12.063Z,3.40
2022-09-29T18:03:40.145Z,3.67
2022-09-29T18:06:07.151Z,4.20
2022-09-29T18:08:33.927Z,4.75
2022-09-29T18:11:01.177Z,4.70
2022-09-29T18:13:31.316Z,4.25
2022-09-29T18:15:59.216Z,3.90
2022-09-29T18:18:26.183Z,3.83
2022-09-29T18:20:53.001Z,3.60
2022-09-29T18:23:20.881Z,3.78
2022-09-29T18:25:48.396Z,2.65
2022-09-29T18:28:15.621Z,2.90
2022-09-29T18:30:43.095Z,3.33
2022-09-29T18:33:13.277Z,3.50
2022-09-29T18:35:41.427Z,3.40
2022-09-29T18:38:08.478Z,3.90
2022-09-29T18:40:35.522Z,4.57
2022-09-29T18:43:03.042Z,5.57
2022-09-29T18:45:31.258Z,4.22
2022-09-29T18:47:59.584Z,4.10
2022-09-29T18:50:56.792Z,4.07
2022-09-29T18:53:23.936Z,4.30
2022-09-29T18:55:51.409Z,5.00
2022-09-29T18:58:21.622Z,4.78
2022-09-29T19:00:55.029Z,4.45
2022-09-29T19:03:23.638Z,4.20
2022-09-29T19:05:50.672Z,3.40
2022-09-29T19:08:17.990Z,3.50
2022-09-29T19:10:55.910Z,3.40
2022-09-29T19:13:23.140Z,3.20
2022-09-29T19:15:50.470Z,3.45
2022-09-29T19:18:22.571Z,3.55
2022-09-29T19:20:51.347Z,4.25
2022-09-29T19:23:19.599Z,4.22
2022-09-29T19:25:47.842Z,3.97
2022-09-29T19:28:15.494Z,4.22
2022-09-29T19:30:44.351Z,4.03
2022-09-29T19:33:17.082Z,4.03
2022-09-29T19:35:50.752Z,3.75
2022-09-29T19:38:17.906Z,4.00
2022-09-29T19:40:45.061Z,4.75
2022-09-29T19:43:13.330Z,4.10
2022-09-29T19:45:40.672Z,4.22
2022-09-29T19:48:08.883Z,4.38
2022-09-29T19:50:54.172Z,4.38
2022-09-29T19:53:21.133Z,4.28
2022-09-29T19:55:48.059Z,4.35
2022-09-29T19:58:14.984Z,4.50
2022-09-29T20:00:41.900Z,5.40
2022-09-29T20:03:09.103Z,5.22
2022-09-29T20:05:36.313Z,5.53
2022-09-29T20:08:03.242Z,5.57
2022-09-29T20:10:30.134Z,5.45
2022-09-29T20:12:57.136Z,5.93
2022-09-29T20:15:24.079Z,6.05
2022-09-29T20:17:52.134Z,6.47
2022-09-29T20:20:19.166Z,6.10
2022-09-29T20:22:46.017Z,7.60
2022-09-29T20:25:13.262Z,7.32
2022-09-29T20:27:40.798Z,7.95
2022-09-29T20:30:08.894Z,10.05
2022-09-29T20:32:35.776Z,8.98
2022-09-29T20:35:02.650Z,8.82
2022-09-29T20:37:29.479Z,8.40
2022-09-29T20:39:56.501Z,9.10
2022-09-29T20:42:23.504Z,10.40
2022-09-29T20:44:55.108Z,9.63
2022-09-29T20:47:24.954Z,8.70
2022-09-29T20:49:54.185Z,8.27
2022-09-29T20:52:21.037Z,7.00
2022-09-29T20:54:48.203Z,6.90
2022-09-29T20:57:18.242Z,6.72
2022-09-29T20:59:45.156Z,6.18
2022-09-29T21:02:13.041Z,5.97
2022-09-29T21:04:40.071Z,6.65
2022-09-29T21:07:26.953Z,6.72
2022-09-29T21:09:53.854Z,7.18
2022-09-29T21:12:20.962Z,6.75
2022-09-29T21:14:47.818Z,7.07
2022-09-29T21:17:14.847Z,7.50
2022-09-29T21:19:41.786Z,7.00
2022-09-29T21:22:09.148Z,6.15
2022-09-29T21:24:37.736Z,6.30
2022-09-29T21:27:05.956Z,6.35
2022-09-29T21:29:32.971Z,6.38
2022-09-29T21:31:59.785Z,6.82
2022-09-29T21:34:26.837Z,6.32
2022-09-29T21:36:53.704Z,6.20
2022-09-29T21:39:20.640Z,6.85
2022-09-29T21:41:47.664Z,6.22
2022-09-29T21:44:19.709Z,6.38
2022-09-29T21:46:46.985Z,6.20
2022-09-29T21:49:14.657Z,6.03
2022-09-29T21:51:43.275Z,6.55
2022-09-29T21:54:14.834Z,5.85
2022-09-29T21:56:42.640Z,5.63
2022-09-29T21:59:10.159Z,5.65
2022-09-29T22:01:38.547Z,6.40
2022-09-29T22:04:05.735Z,5.75
2022-09-29T22:06:33.817Z,5.30
2022-09-29T22:09:00.996Z,5.40
2022-09-29T22:11:42.348Z,5.13
2022-09-29T22:14:10.325Z,5.20
2022-09-29T22:16:37.530Z,5.60
2022-09-29T22:21:53.276Z,5.35
2022-09-29T22:24:20.225Z,5.40
2022-09-29T22:26:47.139Z,5.57
2022-09-29T22:29:14.116Z,5.53
2022-09-29T22:31:41.274Z,5.70
2022-09-29T22:34:08.313Z,5.13
2022-09-29T22:36:35.472Z,4.95
2022-09-29T22:39:06.367Z,5.35
2022-09-29T22:41:36.621Z,5.47
2022-09-29T22:44:03.831Z,4.97
2022-09-29T22:46:31.057Z,5.32
2022-09-29T22:48:58.253Z,5.05
2022-09-29T22:51:25.171Z,4.80
2022-09-29T22:53:52.141Z,5.10
2022-09-29T22:56:20.433Z,5.07
2022-09-29T22:58:48.822Z,5.60
2022-09-29T23:01:16.599Z,5.43
2022-09-29T23:03:44.267Z,5.55
2022-09-29T23:06:11.618Z,5.10
2022-09-29T23:08:38.586Z,5.40
2022-09-29T23:11:07.698Z,5.20
2022-09-29T23:13:36.852Z,5.43
2022-09-29T23:16:09.622Z,5.30
2022-09-29T23:18:43.483Z,5.28
2022-09-29T23:21:10.703Z,4.75
2022-09-29T23:23:37.558Z,5.18
2022-09-29T23:26:04.555Z,5.30
2022-09-29T23:28:31.432Z,5.93
2022-09-29T23:31:03.746Z,5.55
2022-09-29T23:33:31.123Z,5.20
2022-09-29T23:36:07.757Z,5.00
2022-09-29T23:38:53.350Z,5.15
2022-09-29T23:41:20.603Z,5.22
2022-09-29T23:43:47.648Z,5.05
2022-09-29T23:46:14.509Z,5.55
2022-09-29T23:48:41.507Z,5.10
2022-09-29T23:51:09.189Z,4.80
2022-09-29T23:53:36.162Z,5.18
2022-09-29T23:56:03.060Z,5.40
2022-09-29T23:58:29.975Z,4.90
